CheckWX is a tool to help pilots better visualize weather data.  It is not intended as a substitute for an official pre-flight weather briefing.

15:09:08 UTC

EDDR TAF
Saarbrücken Airport
Saarbrücken, Germany
TAF EDDR 231100Z 2312/2412 30005KT CAVOK BECMG 2318/2320 04006KT PROB30 TEMPO 2403/2409 4000 BR BKN012 BECMG 2410/2412 32007KT

Mar-23@
12:00 UTC

Mar-23 @ 12:00 UTC

Mar-23@
18:00 UTC

Mar-23 @ 18:00 UTC

TAF EDDR 231100Z 2312/2412 30005KT CAVOK
Wind
  • 300° at 5 KTS
Conditions
No significant weather
Cloud Levels
  • No significant clouds

Mar-23@
18:00 UTC

Mar-23 @ 18:00 UTC

Mar-24@
10:00 UTC

Mar-24 @ 10:00 UTC

BECMG 2318/2320 04006KT

Becoming

Becoming Conditions expected by Sat, Mar 23, 2019 @ 20:00 UTC

Wind
  • 040° at 6 KTS
Conditions
No significant weather
Cloud Levels
  • No significant clouds

Mar-24@
03:00 UTC

Mar-24 @ 03:00 UTC

Mar-24@
09:00 UTC

Mar-24 @ 09:00 UTC

PROB30 TEMPO 2403/2409 4000 BR BKN012

Temporary - 30% Likelihood

Temporary - 30% Likelihood during this time.

Conditions
Mist
Cloud Levels
  • Broken at 1,200' AGL

Mar-24@
10:00 UTC

Mar-24 @ 10:00 UTC

Mar-24@
12:00 UTC

Mar-24 @ 12:00 UTC

BECMG 2410/2412 32007KT

Becoming

Becoming Conditions expected by Sun, Mar 24, 2019 @ 12:00 UTC

Wind
  • 320° at 7 KTS
Conditions
No significant weather
Cloud Levels
  • No significant clouds